createdAt,value
2023-06-17T00:00:24.419Z,18.50
2023-06-17T00:01:24.459Z,18.49
2023-06-17T00:02:24.464Z,18.46
2023-06-17T00:03:24.490Z,18.46
2023-06-17T00:04:24.361Z,18.46
2023-06-17T00:05:24.357Z,18.46
2023-06-17T00:06:24.371Z,18.47
2023-06-17T00:07:24.365Z,18.47
2023-06-17T00:08:24.327Z,18.46
2023-06-17T00:09:24.315Z,18.44
2023-06-17T00:10:24.302Z,18.44
2023-06-17T00:11:24.363Z,18.46
2023-06-17T00:12:24.303Z,18.44
2023-06-17T00:13:24.267Z,18.42
2023-06-17T00:14:24.284Z,18.43
2023-06-17T00:15:24.269Z,18.43
2023-06-17T00:16:24.244Z,18.43
2023-06-17T00:17:24.255Z,18.43
2023-06-17T00:18:24.222Z,18.43
2023-06-17T00:19:24.204Z,18.43
2023-06-17T00:20:24.433Z,18.43
2023-06-17T00:21:24.181Z,18.42
2023-06-17T00:22:24.181Z,18.42
2023-06-17T00:23:24.145Z,18.43
2023-06-17T00:24:24.216Z,18.40
2023-06-17T00:25:24.138Z,18.36
2023-06-17T00:26:24.117Z,18.37
2023-06-17T00:27:24.129Z,18.31
2023-06-17T00:28:24.104Z,18.28
2023-06-17T00:29:24.098Z,18.27
2023-06-17T00:30:24.158Z,18.27
2023-06-17T00:31:24.065Z,18.27
2023-06-17T00:32:24.102Z,18.28
2023-06-17T00:33:24.046Z,18.31
2023-06-17T00:34:24.036Z,18.34
2023-06-17T00:35:24.012Z,18.36
2023-06-17T00:36:24.021Z,18.39
2023-06-17T00:37:24.010Z,18.40
2023-06-17T00:38:24.023Z,18.43
2023-06-17T00:39:23.989Z,18.46
2023-06-17T00:40:23.957Z,18.43
2023-06-17T00:41:23.980Z,18.42
2023-06-17T00:42:23.956Z,18.42
2023-06-17T00:43:23.949Z,18.42
2023-06-17T00:44:23.918Z,18.40
2023-06-17T00:45:23.909Z,18.40
2023-06-17T00:46:23.957Z,18.40
2023-06-17T00:47:23.905Z,18.42
2023-06-17T00:48:23.877Z,18.42
2023-06-17T00:49:23.874Z,18.42
2023-06-17T00:50:24.002Z,18.43
2023-06-17T00:51:23.833Z,18.43
2023-06-17T00:52:40.400Z,18.40
2023-06-17T00:53:23.820Z,18.37
2023-06-17T00:54:23.804Z,18.37
2023-06-17T00:55:23.804Z,18.34
2023-06-17T00:56:23.802Z,18.33
2023-06-17T00:57:23.789Z,18.33
2023-06-17T00:58:23.819Z,18.34
2023-06-17T00:59:23.757Z,18.36
2023-06-17T01:00:24.002Z,18.37
2023-06-17T01:01:23.750Z,18.39
2023-06-17T01:02:23.739Z,18.40
2023-06-17T01:03:23.804Z,18.39
2023-06-17T01:04:23.690Z,18.39
2023-06-17T01:05:23.712Z,18.40
2023-06-17T01:06:23.674Z,18.43
2023-06-17T01:07:23.679Z,18.46
2023-06-17T01:08:23.663Z,18.44
2023-06-17T01:09:23.626Z,18.44
2023-06-17T01:10:23.792Z,18.46
2023-06-17T01:11:23.622Z,18.47
2023-06-17T01:12:23.642Z,18.46
2023-06-17T01:13:23.621Z,18.47
2023-06-17T01:14:23.589Z,18.47
2023-06-17T01:15:23.571Z,18.49
2023-06-17T01:16:23.603Z,18.47
2023-06-17T01:17:23.562Z,18.47
2023-06-17T01:18:23.554Z,18.47
2023-06-17T01:19:23.532Z,18.42
2023-06-17T01:20:23.835Z,18.43
2023-06-17T01:21:23.505Z,18.43
2023-06-17T01:22:23.523Z,18.42
2023-06-17T01:23:23.569Z,18.43
2023-06-17T01:24:23.483Z,18.42
2023-06-17T01:25:23.452Z,18.43
2023-06-17T01:26:23.463Z,18.43
2023-06-17T01:27:23.448Z,18.43
2023-06-17T01:28:23.457Z,18.43
2023-06-17T01:29:23.409Z,18.43
2023-06-17T01:30:23.586Z,18.43
2023-06-17T01:31:23.410Z,18.43
2023-06-17T01:32:23.414Z,18.43
2023-06-17T01:33:23.381Z,18.46
2023-06-17T01:34:23.345Z,18.43
2023-06-17T01:35:23.343Z,18.42
2023-06-17T01:36:23.339Z,18.43
2023-06-17T01:37:23.310Z,18.42
2023-06-17T01:38:23.328Z,18.40
2023-06-17T01:39:23.302Z,18.42
2023-06-17T01:40:23.545Z,18.40
2023-06-17T01:41:23.276Z,18.43
2023-06-17T01:42:23.251Z,18.43
2023-06-17T01:43:23.268Z,18.43
2023-06-17T01:44:23.239Z,18.44
2023-06-17T01:45:23.247Z,18.43
2023-06-17T01:46:23.277Z,18.42
2023-06-17T01:47:23.254Z,18.43
2023-06-17T01:48:23.207Z,18.42
2023-06-17T01:49:23.186Z,18.43
2023-06-17T01:50:23.451Z,18.43
2023-06-17T01:51:23.272Z,18.43
2023-06-17T01:52:23.145Z,18.44
2023-06-17T01:53:23.168Z,18.43
2023-06-17T01:54:23.139Z,18.44
2023-06-17T01:55:23.154Z,18.43
2023-06-17T01:56:23.103Z,18.46
2023-06-17T01:57:23.103Z,18.46
2023-06-17T01:58:23.115Z,18.46
2023-06-17T01:59:23.100Z,18.44
2023-06-17T02:00:23.266Z,18.44
2023-06-17T02:01:23.055Z,18.44
2023-06-17T02:02:23.066Z,18.44
2023-06-17T02:03:23.202Z,18.46
2023-06-17T02:04:23.048Z,18.44
2023-06-17T02:05:23.018Z,18.46
2023-06-17T02:06:23.012Z,18.44
2023-06-17T02:07:22.986Z,18.42
2023-06-17T02:08:23.009Z,18.40
2023-06-17T02:09:22.973Z,18.39
2023-06-17T02:10:23.135Z,18.37
2023-06-17T02:11:22.938Z,18.39
2023-06-17T02:12:22.934Z,18.39
2023-06-17T02:13:22.942Z,18.37
2023-06-17T02:14:22.909Z,18.36
2023-06-17T02:15:22.900Z,18.36
2023-06-17T02:16:22.922Z,18.37
2023-06-17T02:17:22.884Z,18.36
2023-06-17T02:18:22.875Z,18.36
2023-06-17T02:19:22.844Z,18.36
2023-06-17T02:20:23.024Z,18.36
2023-06-17T02:21:22.838Z,18.36
2023-06-17T02:22:22.923Z,18.36
2023-06-17T02:23:22.833Z,18.37
2023-06-17T02:24:22.828Z,18.37
2023-06-17T02:25:22.799Z,18.37
2023-06-17T02:26:22.776Z,18.39
2023-06-17T02:27:22.850Z,18.39
2023-06-17T02:28:22.787Z,18.40
2023-06-17T02:29:22.746Z,18.40
2023-06-17T02:30:23.011Z,18.42
2023-06-17T02:31:22.791Z,18.43
2023-06-17T02:32:22.709Z,18.43
2023-06-17T02:33:22.720Z,18.43
2023-06-17T02:34:22.699Z,18.42
2023-06-17T02:35:22.700Z,18.42
2023-06-17T02:36:22.687Z,18.43
2023-06-17T02:37:22.688Z,18.40
2023-06-17T02:38:22.677Z,18.42
2023-06-17T02:39:22.650Z,18.40
2023-06-17T02:40:22.918Z,18.40
2023-06-17T02:41:22.609Z,18.39
2023-06-17T02:42:22.590Z,18.42
2023-06-17T02:43:22.623Z,18.40
2023-06-17T02:44:22.581Z,18.42
2023-06-17T02:45:22.590Z,18.42
2023-06-17T02:46:22.590Z,18.43
2023-06-17T02:47:22.541Z,18.40
2023-06-17T02:48:22.542Z,18.40
2023-06-17T02:49:22.519Z,18.39
2023-06-17T02:50:22.656Z,18.36
2023-06-17T02:51:22.488Z,18.34
2023-06-17T02:52:22.492Z,18.31
2023-06-17T02:53:22.492Z,18.33
2023-06-17T02:54:22.544Z,18.29
2023-06-17T02:55:22.465Z,18.31
2023-06-17T02:56:22.432Z,18.31
2023-06-17T02:57:22.472Z,18.33
2023-06-17T02:58:22.444Z,18.33
2023-06-17T02:59:22.439Z,18.34
2023-06-17T03:00:22.661Z,18.33
2023-06-17T03:01:22.496Z,18.34
2023-06-17T03:02:22.477Z,18.36
2023-06-17T03:03:22.425Z,18.36
2023-06-17T03:04:22.356Z,18.36
2023-06-17T03:05:22.366Z,18.37
2023-06-17T03:06:22.322Z,18.37
2023-06-17T03:07:22.345Z,18.39
2023-06-17T03:08:22.313Z,18.37
2023-06-17T03:09:22.302Z,18.37
2023-06-17T03:10:22.529Z,18.37
2023-06-17T03:11:22.267Z,18.37
2023-06-17T03:12:22.289Z,18.37
2023-06-17T03:13:22.264Z,18.37
2023-06-17T03:14:22.236Z,18.37
2023-06-17T03:15:22.249Z,18.36
2023-06-17T03:16:22.317Z,18.37
2023-06-17T03:17:22.228Z,18.37
2023-06-17T03:18:22.210Z,18.39
2023-06-17T03:19:22.170Z,18.39
2023-06-17T03:20:22.486Z,18.40
2023-06-17T03:21:22.160Z,18.40
2023-06-17T03:22:22.156Z,18.42
2023-06-17T03:23:22.166Z,18.43
2023-06-17T03:24:22.154Z,18.43
2023-06-17T03:25:22.123Z,18.44
2023-06-17T03:26:22.113Z,18.47
2023-06-17T03:27:22.125Z,18.47
2023-06-17T03:28:22.095Z,18.46
2023-06-17T03:29:22.129Z,18.46
2023-06-17T03:30:22.274Z,18.46
2023-06-17T03:31:22.106Z,18.47
2023-06-17T03:32:22.093Z,18.44
2023-06-17T03:33:22.032Z,18.43
2023-06-17T03:34:22.014Z,18.44
2023-06-17T03:35:22.009Z,18.43
2023-06-17T03:36:21.981Z,18.40
2023-06-17T03:37:22.031Z,18.40
2023-06-17T03:38:21.996Z,18.39
2023-06-17T03:39:21.956Z,18.40
2023-06-17T03:40:22.277Z,18.42
2023-06-17T03:41:21.989Z,18.40
2023-06-17T03:42:21.934Z,18.43
2023-06-17T03:43:21.934Z,18.42
2023-06-17T03:44:21.905Z,18.43
2023-06-17T03:45:21.910Z,18.43
2023-06-17T03:46:21.892Z,18.43
2023-06-17T03:47:21.867Z,18.44
2023-06-17T03:48:21.876Z,18.44
2023-06-17T03:49:21.861Z,18.44
2023-06-17T03:50:22.090Z,18.44
2023-06-17T03:51:21.840Z,18.46
2023-06-17T03:52:21.826Z,18.46
2023-06-17T03:53:21.815Z,18.46
2023-06-17T03:54:21.808Z,18.46
2023-06-17T03:55:21.835Z,18.47
2023-06-17T03:56:21.759Z,18.46
2023-06-17T03:57:21.775Z,18.47
2023-06-17T03:58:21.764Z,18.49
2023-06-17T03:59:21.742Z,18.49
2023-06-17T04:00:21.950Z,18.52
2023-06-17T04:01:21.709Z,18.52
2023-06-17T04:02:21.789Z,18.55
2023-06-17T04:03:21.778Z,18.55
2023-06-17T04:04:21.733Z,18.55
2023-06-17T04:05:21.682Z,18.55
2023-06-17T04:06:21.652Z,18.57
2023-06-17T04:07:21.654Z,18.54
2023-06-17T04:08:21.661Z,18.55
2023-06-17T04:09:21.625Z,18.57
2023-06-17T04:10:21.624Z,18.54
2023-06-17T04:11:21.601Z,18.49
2023-06-17T04:12:21.586Z,18.47
2023-06-17T04:13:21.604Z,18.49
2023-06-17T04:14:21.561Z,18.46
2023-06-17T04:15:21.579Z,18.46
2023-06-17T04:16:21.548Z,18.49
2023-06-17T04:17:21.529Z,18.49
2023-06-17T04:18:21.601Z,18.49
2023-06-17T04:19:21.515Z,18.47
2023-06-17T04:20:21.725Z,18.44
2023-06-17T04:21:21.534Z,18.37
2023-06-17T04:22:21.492Z,18.34
2023-06-17T04:23:21.468Z,18.34
2023-06-17T04:24:21.589Z,18.36
2023-06-17T04:25:21.435Z,18.37
2023-06-17T04:26:21.435Z,18.40
2023-06-17T04:27:21.426Z,18.43
2023-06-17T04:28:21.435Z,18.44
2023-06-17T04:29:21.402Z,18.46
2023-06-17T04:30:21.622Z,18.49
2023-06-17T04:31:21.382Z,18.50
2023-06-17T04:32:21.373Z,18.52
2023-06-17T04:33:21.384Z,18.55
2023-06-17T04:34:21.338Z,18.58
2023-06-17T04:35:21.333Z,18.59
2023-06-17T04:36:21.314Z,18.61
2023-06-17T04:37:21.315Z,18.61
2023-06-17T04:38:21.320Z,18.64
2023-06-17T04:39:21.295Z,18.65
2023-06-17T04:40:21.472Z,18.62
2023-06-17T04:41:21.249Z,18.64
2023-06-17T04:42:21.249Z,18.65
2023-06-17T04:43:21.256Z,18.65
2023-06-17T04:44:21.251Z,18.67
2023-06-17T04:45:21.222Z,18.68
2023-06-17T04:46:21.273Z,18.68
2023-06-17T04:47:21.266Z,18.68
2023-06-17T04:48:21.185Z,18.70
2023-06-17T04:49:21.193Z,18.70
2023-06-17T04:50:21.424Z,18.70
2023-06-17T04:51:21.144Z,18.67
2023-06-17T04:52:27.688Z,18.62
2023-06-17T04:53:21.125Z,18.64
2023-06-17T04:54:21.126Z,18.64
2023-06-17T04:55:21.112Z,18.64
2023-06-17T04:56:21.205Z,18.64
2023-06-17T04:57:21.081Z,18.64
2023-06-17T04:58:21.083Z,18.65
2023-06-17T04:59:21.083Z,18.68
2023-06-17T05:00:22.492Z,18.70
2023-06-17T05:01:21.072Z,18.68
2023-06-17T05:02:21.053Z,18.67
2023-06-17T05:03:21.047Z,18.67
2023-06-17T05:04:21.017Z,18.70
2023-06-17T05:05:20.996Z,18.72
2023-06-17T05:06:20.989Z,18.72
2023-06-17T05:07:20.960Z,18.73
2023-06-17T05:08:20.954Z,18.72
2023-06-17T05:09:20.965Z,18.68
2023-06-17T05:10:21.249Z,18.64
2023-06-17T05:11:20.926Z,18.62
2023-06-17T05:12:20.929Z,18.64
2023-06-17T05:13:20.903Z,18.64
2023-06-17T05:14:20.902Z,18.62
2023-06-17T05:15:20.875Z,18.65
2023-06-17T05:16:20.883Z,18.65
2023-06-17T05:17:20.895Z,18.68
2023-06-17T05:18:20.843Z,18.70
2023-06-17T05:19:20.850Z,18.72
2023-06-17T05:20:21.061Z,18.70
2023-06-17T05:21:20.811Z,18.72
2023-06-17T05:22:20.809Z,18.72
2023-06-17T05:23:20.784Z,18.76
2023-06-17T05:24:20.804Z,18.80
2023-06-17T05:25:20.775Z,18.82
2023-06-17T05:26:20.758Z,18.83
2023-06-17T05:27:20.743Z,18.84
2023-06-17T05:28:20.749Z,18.86
2023-06-17T05:29:20.717Z,18.87
2023-06-17T05:30:20.929Z,18.91
2023-06-17T05:31:20.756Z,18.87
2023-06-17T05:32:20.685Z,18.90
2023-06-17T05:33:20.677Z,18.91
2023-06-17T05:34:20.674Z,18.92
2023-06-17T05:35:20.660Z,18.98
2023-06-17T05:36:20.664Z,18.98
2023-06-17T05:37:20.626Z,19.01
2023-06-17T05:38:20.620Z,19.01
2023-06-17T05:39:20.606Z,19.02
2023-06-17T05:40:20.905Z,19.05
2023-06-17T05:41:20.588Z,19.06
2023-06-17T05:42:20.597Z,19.08
2023-06-17T05:43:20.568Z,19.11
2023-06-17T05:44:20.561Z,19.13
2023-06-17T05:45:20.548Z,19.15
2023-06-17T05:46:20.627Z,19.18
2023-06-17T05:47:20.536Z,19.20
2023-06-17T05:48:20.513Z,19.21
2023-06-17T05:49:20.500Z,19.24
2023-06-17T05:50:20.861Z,19.25
2023-06-17T05:51:20.477Z,19.29
2023-06-17T05:52:20.481Z,19.29
2023-06-17T05:53:20.480Z,19.29
2023-06-17T05:54:20.456Z,19.29
2023-06-17T05:55:20.436Z,19.29
2023-06-17T05:56:20.425Z,19.25
2023-06-17T05:57:20.413Z,19.24
2023-06-17T05:58:20.411Z,19.25
2023-06-17T05:59:20.411Z,19.25
2023-06-17T06:00:20.735Z,19.25
2023-06-17T06:01:20.445Z,19.25
2023-06-17T06:02:20.366Z,19.29
2023-06-17T06:03:20.373Z,19.28
2023-06-17T06:04:20.367Z,19.28
2023-06-17T06:05:20.362Z,19.29
2023-06-17T06:06:20.331Z,19.25
2023-06-17T06:07:20.308Z,19.24
2023-06-17T06:08:20.296Z,19.28
2023-06-17T06:09:20.285Z,19.29
2023-06-17T06:10:20.597Z,19.29
2023-06-17T06:11:20.255Z,19.33
2023-06-17T06:12:20.257Z,19.31
2023-06-17T06:13:20.239Z,19.28
2023-06-17T06:14:20.235Z,19.23
2023-06-17T06:15:20.240Z,19.23
2023-06-17T06:16:20.260Z,19.24
2023-06-17T06:17:20.199Z,19.28
2023-06-17T06:18:20.195Z,19.29
2023-06-17T06:19:20.164Z,19.25
2023-06-17T06:20:20.479Z,19.28
2023-06-17T06:21:20.170Z,19.28
2023-06-17T06:22:20.159Z,19.31
2023-06-17T06:23:20.130Z,19.31
2023-06-17T06:24:20.152Z,19.32
2023-06-17T06:25:20.131Z,19.32
2023-06-17T06:26:20.098Z,19.32
2023-06-17T06:27:20.094Z,19.33
2023-06-17T06:28:20.073Z,19.35
2023-06-17T06:29:20.094Z,19.38
2023-06-17T06:30:20.251Z,19.32
2023-06-17T06:31:20.041Z,19.29
2023-06-17T06:32:20.039Z,19.28
2023-06-17T06:33:20.019Z,19.25
2023-06-17T06:34:20.021Z,19.28
2023-06-17T06:35:20.015Z,19.29
2023-06-17T06:36:19.980Z,19.32
2023-06-17T06:37:19.972Z,19.35
2023-06-17T06:38:19.962Z,19.39
2023-06-17T06:39:19.966Z,19.42
2023-06-17T06:40:20.276Z,19.43
2023-06-17T06:41:19.926Z,19.50
2023-06-17T06:42:19.930Z,19.54
2023-06-17T06:43:19.912Z,19.54
2023-06-17T06:44:19.895Z,19.54
2023-06-17T06:45:19.911Z,19.54
2023-06-17T06:46:19.898Z,19.58
2023-06-17T06:47:19.881Z,19.55
2023-06-17T06:48:19.847Z,19.53
2023-06-17T06:49:19.840Z,19.50
2023-06-17T06:50:20.033Z,19.50
2023-06-17T06:51:19.816Z,19.47
2023-06-17T06:52:19.816Z,19.42
2023-06-17T06:53:19.793Z,19.46
2023-06-17T06:54:19.785Z,19.48
2023-06-17T06:55:19.796Z,19.53
2023-06-17T06:56:19.763Z,19.57
2023-06-17T06:57:19.757Z,19.60
2023-06-17T06:58:19.747Z,19.65
2023-06-17T06:59:19.738Z,19.66
2023-06-17T07:00:20.095Z,19.69
2023-06-17T07:01:19.800Z,19.69
2023-06-17T07:02:19.714Z,19.69
2023-06-17T07:03:19.685Z,19.70
2023-06-17T07:04:19.693Z,19.70
2023-06-17T07:05:19.681Z,19.70
2023-06-17T07:06:19.660Z,19.73
2023-06-17T07:07:19.644Z,19.76
2023-06-17T07:08:19.643Z,19.79
2023-06-17T07:09:19.615Z,19.79
2023-06-17T07:10:19.755Z,19.79
2023-06-17T07:11:19.590Z,19.79
2023-06-17T07:12:19.584Z,19.80
2023-06-17T07:13:19.571Z,19.80
2023-06-17T07:14:19.569Z,19.83
2023-06-17T07:15:19.570Z,19.86
2023-06-17T07:16:19.606Z,19.88
2023-06-17T07:17:19.546Z,19.90
2023-06-17T07:18:19.515Z,19.93
2023-06-17T07:19:19.511Z,19.93
2023-06-17T07:20:19.966Z,19.91
2023-06-17T07:21:19.495Z,19.88
2023-06-17T07:22:19.470Z,19.88
2023-06-17T07:23:19.464Z,19.91
2023-06-17T07:24:19.487Z,19.90
2023-06-17T07:25:19.436Z,19.86
2023-06-17T07:26:19.437Z,19.79
2023-06-17T07:27:19.417Z,19.76
2023-06-17T07:28:19.408Z,19.76
2023-06-17T07:29:19.389Z,19.75
2023-06-17T07:30:19.681Z,19.73
2023-06-17T07:31:19.461Z,19.75
2023-06-17T07:32:19.400Z,19.79
2023-06-17T07:33:19.410Z,19.80
2023-06-17T07:34:19.330Z,19.83
2023-06-17T07:35:19.334Z,19.86
2023-06-17T07:36:19.311Z,19.90
2023-06-17T07:37:19.324Z,19.94
2023-06-17T07:38:19.311Z,19.94
2023-06-17T07:39:19.292Z,19.88
2023-06-17T07:40:19.555Z,19.84
2023-06-17T07:41:19.260Z,19.79
2023-06-17T07:42:19.263Z,19.78
2023-06-17T07:43:19.238Z,19.79
2023-06-17T07:44:19.224Z,19.80
2023-06-17T07:45:19.222Z,19.86
2023-06-17T07:46:19.239Z,19.90
2023-06-17T07:47:19.218Z,19.94
2023-06-17T07:48:19.314Z,19.98
2023-06-17T07:49:19.184Z,20.08
2023-06-17T07:50:19.485Z,20.12
2023-06-17T07:51:19.149Z,20.16
2023-06-17T07:52:19.166Z,20.23
2023-06-17T07:53:19.131Z,20.31
2023-06-17T07:54:19.114Z,20.34
2023-06-17T07:55:19.125Z,20.31
2023-06-17T07:56:19.095Z,20.34
2023-06-17T07:57:19.094Z,20.43
2023-06-17T07:58:19.080Z,20.53
2023-06-17T07:59:19.076Z,20.68
2023-06-17T08:00:19.567Z,20.77
2023-06-17T08:01:19.095Z,20.89
2023-06-17T08:02:19.103Z,20.98
2023-06-17T08:03:19.091Z,21.04
2023-06-17T08:04:19.033Z,21.09
2023-06-17T08:05:18.997Z,21.17
2023-06-17T08:06:18.986Z,21.20
2023-06-17T08:07:18.987Z,21.23
2023-06-17T08:08:18.957Z,21.29
2023-06-17T08:09:18.952Z,21.38
2023-06-17T08:10:19.118Z,21.44
2023-06-17T08:11:18.926Z,21.46
2023-06-17T08:12:18.939Z,21.53
2023-06-17T08:13:18.917Z,21.51
2023-06-17T08:14:18.905Z,21.48
2023-06-17T08:15:18.888Z,21.50
2023-06-17T08:16:18.918Z,21.53
2023-06-17T08:17:18.874Z,21.56
2023-06-17T08:18:18.848Z,21.59
2023-06-17T08:19:18.841Z,21.63
2023-06-17T08:20:19.180Z,21.72
2023-06-17T08:21:18.821Z,21.79
2023-06-17T08:22:18.827Z,21.82
2023-06-17T08:23:18.812Z,21.88
2023-06-17T08:24:18.781Z,21.91
2023-06-17T08:25:18.773Z,21.97
2023-06-17T08:26:18.758Z,21.98
2023-06-17T08:27:18.775Z,22.01
2023-06-17T08:28:18.745Z,22.14
2023-06-17T08:29:18.736Z,22.19
2023-06-17T08:30:19.379Z,22.20
2023-06-17T08:31:18.712Z,22.20
2023-06-17T08:32:18.723Z,22.17
2023-06-17T08:33:18.685Z,22.17
2023-06-17T08:34:18.676Z,21.92
2023-06-17T08:35:18.664Z,21.79
2023-06-17T08:36:18.653Z,21.75
2023-06-17T08:37:18.656Z,21.71
2023-06-17T08:38:18.638Z,21.66
2023-06-17T08:39:18.619Z,21.69
2023-06-17T08:40:18.988Z,21.74
2023-06-17T08:41:18.602Z,21.81
2023-06-17T08:42:18.601Z,21.83
2023-06-17T08:43:18.577Z,21.85
2023-06-17T08:44:18.568Z,21.92
2023-06-17T08:45:18.547Z,22.01
2023-06-17T08:46:18.554Z,22.14
2023-06-17T08:47:18.608Z,22.27
2023-06-17T08:48:18.517Z,22.41
2023-06-17T08:49:18.526Z,22.53
2023-06-17T08:50:18.621Z,22.50
2023-06-17T08:51:18.596Z,22.54
2023-06-17T08:52:18.492Z,22.54
2023-06-17T08:53:18.504Z,22.57
2023-06-17T08:54:18.458Z,22.59
2023-06-17T08:55:18.496Z,22.54
2023-06-17T08:56:18.438Z,22.52
2023-06-17T08:57:19.442Z,22.47
2023-06-17T08:58:18.430Z,22.39
2023-06-17T08:59:18.592Z,22.32
2023-06-17T09:00:18.787Z,22.29
2023-06-17T09:01:18.438Z,22.23
2023-06-17T09:02:18.402Z,22.20
2023-06-17T09:03:18.355Z,22.20
2023-06-17T09:04:18.355Z,22.35
2023-06-17T09:05:18.418Z,22.47
2023-06-17T09:06:18.325Z,22.56
2023-06-17T09:07:18.366Z,22.68
2023-06-17T09:08:18.306Z,22.80
2023-06-17T09:09:18.289Z,22.90
2023-06-17T09:10:18.416Z,23.05
2023-06-17T09:11:18.276Z,23.11
2023-06-17T09:12:18.268Z,23.23
2023-06-17T09:13:18.278Z,23.42
2023-06-17T09:14:18.316Z,23.50
2023-06-17T09:15:18.234Z,23.55
2023-06-17T09:16:18.243Z,23.53
2023-06-17T09:17:18.279Z,23.53
2023-06-17T09:18:18.289Z,23.40
2023-06-17T09:19:18.180Z,23.29
2023-06-17T09:20:18.578Z,23.20
2023-06-17T09:21:18.178Z,22.99
2023-06-17T09:22:18.161Z,22.93
2023-06-17T09:23:18.148Z,22.90
2023-06-17T09:24:18.189Z,22.84
2023-06-17T09:25:18.122Z,22.71
2023-06-17T09:26:18.101Z,22.64
2023-06-17T09:27:18.090Z,22.54
2023-06-17T09:28:18.091Z,22.46
2023-06-17T09:29:18.093Z,22.62
2023-06-17T09:30:18.129Z,22.86
2023-06-17T09:31:18.046Z,23.05
2023-06-17T09:32:18.033Z,23.17
2023-06-17T09:33:18.041Z,23.32
2023-06-17T09:34:18.058Z,23.50
2023-06-17T09:35:18.006Z,23.75
2023-06-17T09:36:17.986Z,23.86
2023-06-17T09:37:17.981Z,24.05
2023-06-17T09:38:17.970Z,24.26
2023-06-17T09:39:17.980Z,24.38
2023-06-17T09:40:18.225Z,24.39
2023-06-17T09:41:17.950Z,24.19
2023-06-17T09:42:17.931Z,24.01
2023-06-17T09:44:16.900Z,23.77
2023-06-17T09:45:17.923Z,23.61
2023-06-17T09:46:17.932Z,23.57
2023-06-17T09:47:17.879Z,23.49
2023-06-17T09:48:17.891Z,23.42
2023-06-17T09:49:17.871Z,23.43
2023-06-17T09:50:17.882Z,23.43
2023-06-17T09:51:17.853Z,23.53
2023-06-17T09:52:17.831Z,23.70
2023-06-17T09:53:17.812Z,23.85
2023-06-17T09:54:17.795Z,24.01
2023-06-17T09:55:17.811Z,24.05
2023-06-17T09:56:17.786Z,24.00
2023-06-17T09:57:17.797Z,23.97
2023-06-17T09:58:17.767Z,24.04
2023-06-17T09:59:17.770Z,24.17
2023-06-17T10:00:17.913Z,24.24
2023-06-17T10:01:17.728Z,24.31
2023-06-17T10:02:17.746Z,24.19
2023-06-17T10:03:17.804Z,24.04
2023-06-17T10:04:17.762Z,23.92
2023-06-17T10:05:17.690Z,23.77
2023-06-17T10:06:17.677Z,23.65
2023-06-17T10:07:17.680Z,23.50
2023-06-17T10:08:17.660Z,23.40
2023-06-17T10:09:17.632Z,23.27
2023-06-17T10:10:17.695Z,23.22
2023-06-17T10:11:17.612Z,23.26
2023-06-17T10:12:17.605Z,23.27
2023-06-17T10:13:17.608Z,23.29
2023-06-17T10:14:17.581Z,23.22
2023-06-17T10:15:17.591Z,23.19
2023-06-17T10:16:17.560Z,23.17
2023-06-17T10:17:17.552Z,23.15
2023-06-17T10:18:17.543Z,23.19
2023-06-17T10:19:17.570Z,23.22
2023-06-17T10:20:17.518Z,23.40
2023-06-17T10:21:17.572Z,23.53
2023-06-17T10:22:17.503Z,23.67
2023-06-17T10:23:17.487Z,23.80
2023-06-17T10:24:17.508Z,23.95
2023-06-17T10:25:17.479Z,24.13
2023-06-17T10:26:17.453Z,24.34
2023-06-17T10:27:17.446Z,24.45
2023-06-17T10:28:17.433Z,24.59
2023-06-17T10:29:17.421Z,24.71
2023-06-17T10:30:17.437Z,24.76
2023-06-17T10:31:17.390Z,24.76
2023-06-17T10:32:17.386Z,24.82
2023-06-17T10:33:17.437Z,24.83
2023-06-17T10:34:17.366Z,24.95
2023-06-17T10:35:17.370Z,25.10
2023-06-17T10:36:17.337Z,25.19
2023-06-17T10:37:17.338Z,25.24
2023-06-17T10:38:17.321Z,25.12
2023-06-17T10:39:17.305Z,25.01
2023-06-17T10:40:17.311Z,24.97
2023-06-17T10:41:17.279Z,25.02
2023-06-17T10:42:17.287Z,24.97
2023-06-17T10:43:17.272Z,24.80
2023-06-17T10:44:17.250Z,24.82
2023-06-17T10:45:17.236Z,24.85
2023-06-17T10:46:17.284Z,24.87
2023-06-17T10:47:17.224Z,24.98
2023-06-17T10:48:17.210Z,25.10
2023-06-17T10:49:17.198Z,25.22
2023-06-17T10:50:17.200Z,25.20
2023-06-17T10:51:17.172Z,25.25
2023-06-17T10:53:18.449Z,25.46
2023-06-17T10:54:19.441Z,25.52
2023-06-17T10:55:19.419Z,25.62
2023-06-17T10:56:19.407Z,25.68
2023-06-17T10:57:19.413Z,25.79
2023-06-17T10:58:19.387Z,25.84
2023-06-17T10:59:19.378Z,25.93
2023-06-17T11:00:19.641Z,25.97
2023-06-17T11:01:19.355Z,25.82
2023-06-17T11:02:19.372Z,25.72
2023-06-17T11:03:19.513Z,25.71
2023-06-17T11:04:19.329Z,25.72
2023-06-17T11:05:19.322Z,25.67
2023-06-17T11:06:19.318Z,25.64
2023-06-17T11:07:19.315Z,25.61
2023-06-17T11:08:19.284Z,25.67
2023-06-17T11:09:19.296Z,25.77
2023-06-17T11:10:19.315Z,25.86
2023-06-17T11:11:19.256Z,25.93
2023-06-17T11:12:19.248Z,26.05
2023-06-17T11:13:19.241Z,26.18
2023-06-17T11:14:19.219Z,26.25
2023-06-17T11:15:19.234Z,26.17
2023-06-17T11:16:19.219Z,26.11
2023-06-17T11:17:19.224Z,25.98
2023-06-17T11:18:19.189Z,26.01
2023-06-17T11:19:19.175Z,26.09
2023-06-17T11:20:19.373Z,26.25
2023-06-17T11:21:19.177Z,26.37
2023-06-17T11:22:19.142Z,26.46
2023-06-17T11:23:19.126Z,26.25
2023-06-17T11:24:19.153Z,26.18
2023-06-17T11:25:19.648Z,26.09
2023-06-17T11:26:19.100Z,26.18
2023-06-17T11:27:19.077Z,26.35
2023-06-17T11:28:19.090Z,26.50
2023-06-17T11:29:19.084Z,26.65
2023-06-17T11:30:19.396Z,26.79
2023-06-17T11:31:19.059Z,26.94
2023-06-17T11:32:19.032Z,27.11
2023-06-17T11:33:19.012Z,27.31
2023-06-17T11:34:19.009Z,27.47
2023-06-17T11:35:19.007Z,27.31
2023-06-17T11:36:19.007Z,27.14
2023-06-17T11:37:18.972Z,26.96
2023-06-17T11:38:18.971Z,26.76
2023-06-17T11:39:18.959Z,26.67
2023-06-17T11:40:19.151Z,26.74
2023-06-17T11:41:18.961Z,26.72
2023-06-17T11:42:18.955Z,26.69
2023-06-17T11:43:18.903Z,26.69
2023-06-17T11:44:18.917Z,26.59
2023-06-17T11:45:18.894Z,26.55
2023-06-17T11:46:18.913Z,26.31
2023-06-17T11:47:18.900Z,26.24
2023-06-17T11:48:18.874Z,26.17
2023-06-17T11:49:18.839Z,26.04
2023-06-17T11:50:19.198Z,25.89
2023-06-17T11:51:20.774Z,25.74
2023-06-17T11:52:18.815Z,25.61
2023-06-17T11:53:18.823Z,25.50
2023-06-17T11:54:18.797Z,25.43
2023-06-17T11:55:18.797Z,25.54
2023-06-17T11:56:18.769Z,25.72
2023-06-17T11:57:18.771Z,25.97
2023-06-17T11:58:18.750Z,26.21
2023-06-17T11:59:18.753Z,26.47
2023-06-17T12:00:18.913Z,26.68
2023-06-17T12:01:18.715Z,26.87
2023-06-17T12:02:18.824Z,26.98
2023-06-17T12:03:18.732Z,26.96
2023-06-17T12:04:18.757Z,26.96
2023-06-17T12:05:18.691Z,26.94
2023-06-17T12:06:18.661Z,27.04
2023-06-17T12:07:18.646Z,27.17
2023-06-17T12:08:18.661Z,27.09
2023-06-17T12:09:18.627Z,27.26
2023-06-17T12:10:19.028Z,27.41
2023-06-17T12:11:18.631Z,27.54
2023-06-17T12:12:18.597Z,27.64
2023-06-17T12:13:18.590Z,27.73
2023-06-17T12:14:18.583Z,27.85
2023-06-17T12:15:18.593Z,27.88
2023-06-17T12:16:19.174Z,27.84
2023-06-17T12:17:18.549Z,27.98
2023-06-17T12:18:18.533Z,28.16
2023-06-17T12:19:18.531Z,28.28
2023-06-17T12:20:18.572Z,28.35
2023-06-17T12:21:18.504Z,28.36
2023-06-17T12:22:18.499Z,28.31
2023-06-17T12:23:18.487Z,28.36
2023-06-17T12:24:18.489Z,28.46
2023-06-17T12:25:18.474Z,28.53
2023-06-17T12:26:18.470Z,28.58
2023-06-17T12:27:18.435Z,28.53
2023-06-17T12:28:18.433Z,28.54
2023-06-17T12:29:25.272Z,28.54
2023-06-17T12:30:18.406Z,28.59
2023-06-17T12:31:18.416Z,28.66
2023-06-17T12:32:18.386Z,28.66
2023-06-17T12:33:18.375Z,28.73
2023-06-17T12:34:18.372Z,28.84
2023-06-17T12:35:18.590Z,28.78
2023-06-17T12:36:18.391Z,28.54
2023-06-17T12:37:18.342Z,28.44
2023-06-17T12:38:18.328Z,28.36
2023-06-17T12:39:18.316Z,28.40
2023-06-17T12:40:18.322Z,28.50
2023-06-17T12:41:18.319Z,28.51
2023-06-17T12:42:18.323Z,28.69
2023-06-17T12:43:18.291Z,28.77
2023-06-17T12:44:19.088Z,28.63
2023-06-17T12:45:18.750Z,28.43
2023-06-17T12:46:18.337Z,28.19
2023-06-17T12:47:18.223Z,27.98
2023-06-17T12:48:18.232Z,27.69
2023-06-17T12:49:18.208Z,27.46
2023-06-17T12:50:18.231Z,27.48
2023-06-17T12:51:18.213Z,27.57
2023-06-17T12:52:18.190Z,27.66
2023-06-17T12:53:18.174Z,27.77
2023-06-17T12:54:18.944Z,27.84